Time;durP1;ratioP1;P1;durP2;ratioP2;P2;SDS_P1;SDS_P2;PMS_P1;PMS_P2;Temp;Humidity;BMP_temperature;BMP_pressure;BME280_temperature;BME280_humidity;BME280_pressure;Samples;Min_cycle;Max_cycle;Signal;HPM_P1;HPM_P2
2023/08/03 00:00:12;;;;;;;3.17;2.60;;;;;;;18.48;100.00;97795.13;5106662;28;20198;-75
2023/08/03 00:02:40;;;;;;;2.33;2.13;;;;;;;18.39;100.00;97804.34;5101317;28;20202;-76
2023/08/03 00:05:07;;;;;;;3.17;2.20;;;;;;;18.33;100.00;97803.72;5104698;28;20670;-75
2023/08/03 00:07:34;;;;;;;3.00;2.60;;;;;;;18.32;100.00;97818.38;5108912;28;20226;-74
2023/08/03 00:10:01;;;;;;;2.37;2.10;;;;;;;18.29;100.00;97810.06;5102149;28;20255;-75
2023/08/03 00:12:28;;;;;;;2.73;2.30;;;;;;;18.25;100.00;97804.47;5099132;28;20227;-74
2023/08/03 00:14:55;;;;;;;2.50;2.30;;;;;;;18.16;100.00;97802.81;5095544;28;20216;-75
2023/08/03 00:17:21;;;;;;;3.17;2.30;;;;;;;18.12;100.00;97808.06;5105217;28;20194;-76
2023/08/03 00:19:48;;;;;;;4.20;2.40;;;;;;;18.08;100.00;97809.81;5110456;28;20197;-76
2023/08/03 00:22:15;;;;;;;2.80;2.50;;;;;;;18.03;100.00;97815.38;5109635;28;20226;-76
2023/08/03 00:24:41;;;;;;;3.40;2.70;;;;;;;17.99;100.00;97820.63;5103750;28;20700;-75
2023/08/03 00:27:08;;;;;;;3.10;2.43;;;;;;;18.00;100.00;97824.13;5105998;28;20229;-77
2023/08/03 00:29:35;;;;;;;2.43;2.23;;;;;;;17.94;100.00;97837.00;5102293;28;20199;-76
2023/08/03 00:32:01;;;;;;;3.20;2.50;;;;;;;17.89;100.00;97839.03;5103404;28;20249;-75
2023/08/03 00:34:31;;;;;;;2.60;2.40;;;;;;;17.87;100.00;97846.69;5100760;28;20205;-75
2023/08/03 00:36:58;;;;;;;3.73;2.30;;;;;;;17.80;100.00;97851.72;5100721;28;20287;-76
2023/08/03 00:39:25;;;;;;;3.40;2.80;;;;;;;17.75;100.00;97855.38;5103360;28;20192;-76
2023/08/03 00:41:52;;;;;;;3.07;2.50;;;;;;;17.72;100.00;97855.19;5093737;28;20524;-76
2023/08/03 00:44:18;;;;;;;2.40;2.20;;;;;;;17.68;100.00;97859.63;5104371;28;20189;-75
2023/08/03 00:46:45;;;;;;;3.10;2.67;;;;;;;17.67;100.00;97861.53;5110294;28;20199;-75
2023/08/03 00:49:13;;;;;;;2.73;2.43;;;;;;;17.62;100.00;97867.06;5090357;28;20204;-76
2023/08/03 00:51:40;;;;;;;4.30;2.40;;;;;;;17.62;100.00;97880.59;5084704;28;20253;-75
2023/08/03 00:54:07;;;;;;;3.03;2.60;;;;;;;17.57;100.00;97873.38;5112732;28;20232;-75
2023/08/03 00:56:35;;;;;;;4.47;2.70;;;;;;;17.57;100.00;97881.50;5112235;28;20303;-76
2023/08/03 00:59:06;;;;;;;3.43;2.67;;;;;;;17.59;100.00;97886.63;5112551;28;20188;-75
2023/08/03 01:01:33;;;;;;;2.87;2.60;;;;;;;17.69;100.00;97886.38;5109503;28;20256;-75
2023/08/03 01:04:00;;;;;;;4.07;2.83;;;;;;;17.59;100.00;97890.13;5112489;28;20733;-75
2023/08/03 01:06:26;;;;;;;3.30;2.53;;;;;;;17.51;100.00;97892.75;5100028;28;20622;-75
2023/08/03 01:08:55;;;;;;;3.80;2.60;;;;;;;17.48;100.00;97891.47;5071360;28;20185;-75
2023/08/03 01:11:21;;;;;;;3.17;2.90;;;;;;;17.46;100.00;97906.41;5072263;28;20253;-75
2023/08/03 01:13:48;;;;;;;3.00;2.40;;;;;;;17.38;100.00;97907.94;5072271;28;20200;-76
2023/08/03 01:16:15;;;;;;;3.00;2.70;;;;;;;17.43;100.00;97907.00;5071576;28;20204;-75
2023/08/03 01:18:42;;;;;;;2.93;2.63;;;;;;;17.47;100.00;97910.72;5061917;28;20218;-75
2023/08/03 01:21:09;;;;;;;3.90;2.97;;;;;;;17.44;100.00;97909.44;5051932;28;20233;-74
2023/08/03 01:23:36;;;;;;;4.10;2.83;;;;;;;17.40;100.00;97910.34;5062467;28;20195;-75
2023/08/03 01:26:03;;;;;;;3.30;3.00;;;;;;;17.44;100.00;97916.75;5054204;28;20208;-75
2023/08/03 01:28:29;;;;;;;3.00;2.70;;;;;;;17.42;100.00;97927.88;5068624;28;20250;-75
2023/08/03 01:30:56;;;;;;;3.50;3.20;;;;;;;17.33;100.00;97932.41;5069091;28;20732;-76
2023/08/03 01:33:23;;;;;;;3.30;2.97;;;;;;;17.28;100.00;97931.72;5071045;28;20744;-77
2023/08/03 01:35:51;;;;;;;3.53;3.07;;;;;;;17.32;100.00;97948.94;5069048;28;20222;-75
2023/08/03 01:38:18;;;;;;;3.20;2.93;;;;;;;17.30;100.00;97945.75;5071051;28;20716;-76
2023/08/03 01:40:44;;;;;;;3.30;3.10;;;;;;;17.26;100.00;97963.69;5068502;28;20188;-75
2023/08/03 01:43:12;;;;;;;3.37;3.07;;;;;;;17.24;100.00;97963.19;5069673;28;20277;-76
2023/08/03 01:45:39;;;;;;;3.17;2.97;;;;;;;17.26;100.00;97966.41;5070237;28;20282;-77
2023/08/03 01:48:05;;;;;;;3.07;2.87;;;;;;;17.23;100.00;97972.41;5069599;28;20205;-75
2023/08/03 01:50:34;;;;;;;3.73;3.33;;;;;;;17.26;100.00;97978.03;5066921;28;20228;-75
2023/08/03 01:53:01;;;;;;;3.80;2.93;;;;;;;17.21;100.00;97974.63;5071238;28;20233;-75
2023/08/03 01:55:27;;;;;;;3.53;3.20;;;;;;;17.24;100.00;97974.00;5071745;28;20266;-75
2023/08/03 01:57:54;;;;;;;3.43;3.17;;;;;;;17.27;100.00;97971.50;5067280;28;20564;-76
2023/08/03 02:00:21;;;;;;;3.83;3.53;;;;;;;17.27;100.00;97970.69;5070237;28;20212;-76
2023/08/03 02:02:47;;;;;;;3.73;3.10;;;;;;;17.29;100.00;97974.72;5067085;28;20609;-75
2023/08/03 02:05:18;;;;;;;3.47;3.13;;;;;;;17.25;100.00;97968.31;5064536;28;20205;-75
2023/08/03 02:07:45;;;;;;;3.10;2.90;;;;;;;17.23;100.00;97977.81;5053226;28;20231;-75
2023/08/03 02:10:14;;;;;;;4.63;3.00;;;;;;;17.21;100.00;97985.47;5060355;28;20223;-75
2023/08/03 02:12:40;;;;;;;3.87;3.23;;;;;;;17.17;100.00;97991.44;5065858;28;20207;-76
2023/08/03 02:15:07;;;;;;;3.53;2.97;;;;;;;17.17;100.00;98004.97;5071505;28;20195;-74
2023/08/03 02:17:34;;;;;;;3.40;3.10;;;;;;;17.17;100.00;98007.69;5071040;28;20285;-75
2023/08/03 02:20:00;;;;;;;3.80;3.33;;;;;;;17.16;100.00;98019.63;5071218;28;20549;-75
2023/08/03 02:22:27;;;;;;;3.53;3.23;;;;;;;17.20;100.00;98019.03;5054527;28;20196;-75
2023/08/03 02:24:54;;;;;;;3.30;3.03;;;;;;;17.15;100.00;98028.06;5070523;28;20234;-75
2023/08/03 02:27:20;;;;;;;3.57;3.27;;;;;;;17.13;100.00;98039.16;5065954;28;20228;-76
2023/08/03 02:29:48;;;;;;;3.37;3.07;;;;;;;17.13;100.00;98055.41;5054604;28;20215;-74
2023/08/03 02:32:15;;;;;;;3.50;3.20;;;;;;;17.13;100.00;98071.63;5057275;28;20194;-75
2023/08/03 02:34:42;;;;;;;3.40;3.10;;;;;;;17.13;100.00;98095.19;5073282;28;20215;-75
2023/08/03 02:37:09;;;;;;;3.50;3.20;;;;;;;17.22;100.00;98093.38;5073772;28;20296;-75
2023/08/03 02:39:36;;;;;;;3.57;2.97;;;;;;;17.38;100.00;98094.72;5073292;28;20285;-75
2023/08/03 02:42:04;;;;;;;3.20;3.00;;;;;;;17.40;100.00;98102.53;5074973;28;20327;-75
2023/08/03 02:44:35;;;;;;;3.30;3.00;;;;;;;17.48;100.00;98120.78;5073901;28;20236;-75
2023/08/03 02:47:03;;;;;;;3.37;2.87;;;;;;;17.59;100.00;98128.44;5072091;28;20235;-75
2023/08/03 02:49:29;;;;;;;3.80;3.20;;;;;;;17.70;100.00;98123.63;5073306;28;20674;-75
2023/08/03 02:51:59;;;;;;;2.83;2.63;;;;;;;17.91;100.00;98129.44;5074908;28;20286;-75
2023/08/03 02:54:37;;;;;;;2.53;2.33;;;;;;;18.40;100.00;98142.97;5073218;28;20241;-75
2023/08/03 02:57:05;;;;;;;2.37;2.00;;;;;;;18.73;100.00;98127.28;5071932;28;20587;-74
2023/08/03 02:59:32;;;;;;;2.50;2.27;;;;;;;18.96;100.00;98136.22;5060723;28;20194;-74
2023/08/03 03:01:59;;;;;;;2.33;2.13;;;;;;;19.16;100.00;98145.78;5073547;28;20675;-75
2023/08/03 03:04:31;;;;;;;2.77;2.33;;;;;;;19.35;100.00;98141.72;5072469;28;20226;-74
2023/08/03 03:06:58;;;;;;;2.93;2.07;;;;;;;19.41;100.00;98158.66;5079611;28;20254;-74
2023/08/03 03:09:24;;;;;;;2.30;2.03;;;;;;;19.54;100.00;98155.09;5095836;28;20568;-74
2023/08/03 03:11:55;;;;;;;2.37;1.97;;;;;;;19.35;100.00;98155.31;5093237;28;20215;-77
2023/08/03 03:14:28;;;;;;;2.93;2.10;;;;;;;19.41;100.00;98158.66;5088231;28;20578;-76
2023/08/03 03:16:55;;;;;;;3.13;2.23;;;;;;;19.45;100.00;98164.31;5092760;28;20220;-75
2023/08/03 03:19:22;;;;;;;2.63;2.00;;;;;;;19.47;100.00;98164.78;5083886;28;20211;-75
2023/08/03 03:21:52;;;;;;;2.33;2.13;;;;;;;19.35;100.00;98185.19;5092253;28;20248;-75
2023/08/03 03:24:19;;;;;;;3.67;2.20;;;;;;;19.25;100.00;98181.91;5092428;28;20637;-75
2023/08/03 03:26:46;;;;;;;3.57;2.20;;;;;;;19.27;100.00;98194.06;5092227;28;20294;-77
2023/08/03 03:29:13;;;;;;;3.17;2.10;;;;;;;19.33;100.00;98206.41;5090947;28;20200;-75
2023/08/03 03:31:39;;;;;;;2.10;1.90;;;;;;;19.47;100.00;98189.25;5092522;28;20192;-75
2023/08/03 03:34:06;;;;;;;2.10;1.90;;;;;;;19.39;100.00;98198.94;5089198;28;20847;-74
2023/08/03 03:36:33;;;;;;;2.43;2.23;;;;;;;19.59;100.00;98192.19;5088227;28;20772;-76
2023/08/03 03:39:00;;;;;;;2.60;2.40;;;;;;;19.69;100.00;98203.56;5092217;28;20207;-75
2023/08/03 03:41:27;;;;;;;2.63;2.10;;;;;;;19.93;100.00;98205.09;5092654;28;20249;-75
2023/08/03 03:43:53;;;;;;;3.33;2.20;;;;;;;19.85;100.00;98203.97;5093778;28;20576;-75
2023/08/03 03:46:20;;;;;;;2.20;1.90;;;;;;;19.86;100.00;98216.44;5093953;28;20251;-75
2023/08/03 03:48:47;;;;;;;2.37;2.13;;;;;;;20.13;100.00;98226.28;5092125;28;20206;-76
2023/08/03 03:51:15;;;;;;;2.20;2.00;;;;;;;20.16;100.00;98233.78;5090035;28;20204;-76
2023/08/03 03:53:42;;;;;;;2.40;2.20;;;;;;;20.30;100.00;98244.53;5093566;28;20204;-74
2023/08/03 03:56:12;;;;;;;2.80;2.30;;;;;;;20.19;100.00;98236.72;5092056;28;20224;-78
2023/08/03 03:58:39;;;;;;;2.30;2.10;;;;;;;20.26;100.00;98240.88;5093184;28;20248;-75
2023/08/03 04:01:06;;;;;;;3.43;2.03;;;;;;;20.40;100.00;98236.13;5093145;28;20556;-75
2023/08/03 04:03:33;;;;;;;2.33;2.00;;;;;;;20.40;100.00;98242.38;5093211;28;20199;-74
2023/08/03 04:06:03;;;;;;;2.03;1.83;;;;;;;20.42;100.00;98242.88;5093179;28;20207;-75
2023/08/03 04:08:30;;;;;;;2.20;2.00;;;;;;;20.40;100.00;98247.00;5095422;28;20295;-76
2023/08/03 04:10:56;;;;;;;2.30;2.10;;;;;;;20.49;100.00;98251.34;5110738;28;20263;-76
2023/08/03 04:13:23;;;;;;;1.87;1.77;;;;;;;20.59;100.00;98261.94;5111287;28;20203;-76
2023/08/03 04:15:50;;;;;;;2.07;1.87;;;;;;;20.65;100.00;98270.75;5082200;28;20263;-74
2023/08/03 04:18:16;;;;;;;2.57;1.90;;;;;;;20.65;100.00;98268.84;5086750;28;20215;-74
2023/08/03 04:20:43;;;;;;;1.98;1.70;;;;;;;20.71;100.00;98269.50;5107365;28;20544;-76
2023/08/03 04:23:10;;;;;;;2.42;1.50;;;;;;;20.72;100.00;98279.22;5113138;28;20195;-74
2023/08/03 04:25:37;;;;;;;1.45;1.35;;;;;;;20.81;100.00;98282.00;5100007;28;20206;-74
2023/08/03 04:28:12;;;;;;;1.40;1.30;;;;;;;20.83;100.00;98274.28;5089126;28;20691;-75
2023/08/03 04:30:39;;;;;;;1.67;1.30;;;;;;;20.95;100.00;98272.53;5099490;28;20192;-75
2023/08/03 04:33:05;;;;;;;2.80;1.33;;;;;;;21.00;100.00;98279.75;5084969;28;20190;-76
2023/08/03 04:35:36;;;;;;;2.07;1.20;;;;;;;21.10;100.00;98285.69;5105157;28;20210;-74
2023/08/03 04:38:08;;;;;;;2.00;1.30;;;;;;;21.16;100.00;98288.28;5082463;28;20223;-75
2023/08/03 04:40:37;;;;;;;2.05;1.27;;;;;;;21.16;100.00;98296.44;5083187;28;20257;-75
2023/08/03 04:43:04;;;;;;;2.35;1.27;;;;;;;21.17;100.00;98303.50;5075099;28;20728;-75
2023/08/03 04:45:31;;;;;;;1.60;1.15;;;;;;;21.26;100.00;98304.28;5101166;28;20219;-76
2023/08/03 04:47:58;;;;;;;1.40;1.10;;;;;;;21.31;100.00;98315.03;5103715;28;20283;-74
2023/08/03 04:50:26;;;;;;;1.23;1.13;;;;;;;21.31;100.00;98317.75;5086013;28;20195;-75
2023/08/03 04:52:52;;;;;;;2.08;1.20;;;;;;;21.39;100.00;98315.03;5088269;28;20712;-75
2023/08/03 04:55:21;;;;;;;1.63;1.10;;;;;;;21.34;100.00;98320.63;5077186;28;20206;-76
2023/08/03 04:57:47;;;;;;;1.48;1.00;;;;;;;21.31;100.00;98312.31;5091645;28;20223;-75
2023/08/03 05:00:17;;;;;;;1.85;1.15;;;;;;;21.29;100.00;98331.69;5085874;28;20204;-75
2023/08/03 05:02:46;;;;;;;2.10;1.30;;;;;;;21.38;100.00;98343.38;5094539;28;20292;-75
2023/08/03 05:05:13;;;;;;;1.98;1.20;;;;;;;21.31;100.00;98345.00;5112391;28;20786;-75
2023/08/03 05:07:40;;;;;;;1.23;1.08;;;;;;;21.28;100.00;98342.91;5089587;28;20232;-75
2023/08/03 05:10:07;;;;;;;1.50;1.13;;;;;;;21.27;100.00;98341.31;5090726;28;20216;-74
2023/08/03 05:12:33;;;;;;;1.40;0.90;;;;;;;21.31;100.00;98339.56;5087054;28;20204;-76
2023/08/03 05:15:00;;;;;;;1.33;1.17;;;;;;;21.40;100.00;98332.97;5090117;28;20197;-74
2023/08/03 05:17:27;;;;;;;2.15;1.10;;;;;;;21.44;100.00;98339.38;5090124;28;20236;-75
2023/08/03 05:19:54;;;;;;;2.38;0.95;;;;;;;21.51;100.00;98342.41;5091643;28;20190;-74
2023/08/03 05:22:21;;;;;;;2.35;1.00;;;;;;;21.69;100.00;98343.22;5091484;28;20710;-74
2023/08/03 05:24:47;;;;;;;1.65;1.05;;;;;;;21.81;100.00;98334.34;5089119;28;20197;-75
2023/08/03 05:27:14;;;;;;;2.28;1.00;;;;;;;21.94;100.00;98342.38;5090691;28;20203;-74
2023/08/03 05:29:43;;;;;;;2.13;1.10;;;;;;;22.11;100.00;98343.47;5091923;28;20250;-76
2023/08/03 05:32:10;;;;;;;1.92;1.00;;;;;;;22.26;100.00;98337.47;5084062;28;20229;-74
2023/08/03 05:34:37;;;;;;;2.30;1.30;;;;;;;22.36;100.00;98340.63;5091991;28;20239;-75
2023/08/03 05:37:04;;;;;;;2.35;1.10;;;;;;;22.57;100.00;98337.97;5092121;28;20230;-75
2023/08/03 05:39:31;;;;;;;1.85;1.10;;;;;;;22.68;100.00;98341.91;5091922;28;20654;-75
2023/08/03 05:41:59;;;;;;;2.38;1.20;;;;;;;22.89;100.00;98335.72;5083975;28;20209;-76
2023/08/03 05:44:26;;;;;;;2.00;1.10;;;;;;;23.11;100.00;98336.22;5091753;28;20549;-75
2023/08/03 05:46:53;;;;;;;2.60;1.02;;;;;;;23.25;100.00;98344.16;5090993;28;20610;-74
2023/08/03 05:49:20;;;;;;;3.70;1.65;;;;;;;23.63;100.00;98330.34;5091891;28;20223;-75
2023/08/03 05:51:46;;;;;;;3.22;1.27;;;;;;;23.79;100.00;98341.47;5091627;28;20616;-75
2023/08/03 05:54:16;;;;;;;3.55;1.08;;;;;;;24.12;100.00;98339.50;5091494;28;20220;-74
2023/08/03 05:56:45;;;;;;;2.28;1.13;;;;;;;24.06;100.00;98341.66;5091688;28;20220;-75
2023/08/03 05:59:20;;;;;;;3.10;1.08;;;;;;;24.55;100.00;98339.78;5087686;28;20223;-75
2023/08/03 06:01:48;;;;;;;1.50;1.10;;;;;;;24.85;100.00;98353.25;5091515;28;20282;-76
2023/08/03 06:04:18;;;;;;;2.13;1.00;;;;;;;24.98;100.00;98357.59;5094036;28;20188;-74
2023/08/03 06:06:45;;;;;;;3.05;1.30;;;;;;;24.75;100.00;98356.44;5088067;28;20240;-75
2023/08/03 06:09:13;;;;;;;3.20;1.50;;;;;;;24.62;100.00;98357.59;5067261;28;20196;-76
2023/08/03 06:11:40;;;;;;;1.90;1.33;;;;;;;24.59;100.00;98363.75;5075172;28;20231;-75
2023/08/03 06:14:11;;;;;;;2.20;1.23;;;;;;;24.40;100.00;98370.56;5072161;28;20288;-78
2023/08/03 06:16:39;;;;;;;2.50;1.10;;;;;;;24.24;100.00;98366.09;5074914;28;20734;-75
2023/08/03 06:19:09;;;;;;;3.15;1.00;;;;;;;24.08;100.00;98363.19;5074699;28;20188;-74
2023/08/03 06:21:36;;;;;;;3.08;1.45;;;;;;;23.73;100.00;98365.47;5073783;28;20200;-75
2023/08/03 06:24:03;;;;;;;2.35;1.17;;;;;;;23.66;100.00;98368.75;5073776;28;20247;-75
2023/08/03 06:26:33;;;;;;;1.63;1.00;;;;;;;23.34;100.00;98360.47;5072554;28;20268;-75
2023/08/03 06:29:02;;;;;;;3.35;1.23;;;;;;;23.18;100.00;98360.28;5074883;28;20275;-75
2023/08/03 06:31:31;;;;;;;3.58;1.13;;;;;;;22.94;100.00;98355.47;5074747;28;20230;-75
2023/08/03 06:33:58;;;;;;;2.17;1.15;;;;;;;22.89;100.00;98352.91;5074526;28;20584;-75
2023/08/03 06:36:26;;;;;;;2.13;1.05;;;;;;;22.99;100.00;98349.81;5064769;28;20217;-75
2023/08/03 06:38:54;;;;;;;1.50;1.10;;;;;;;22.85;100.00;98352.00;5074707;28;20255;-75
2023/08/03 06:41:21;;;;;;;2.97;1.10;;;;;;;22.73;100.00;98358.13;5074834;28;20685;-74
2023/08/03 06:43:48;;;;;;;2.55;1.40;;;;;;;22.59;100.00;98360.28;5066011;28;20534;-76
2023/08/03 06:46:15;;;;;;;2.22;1.33;;;;;;;22.54;100.00;98357.72;5066877;28;20289;-75
2023/08/03 06:48:41;;;;;;;1.77;1.00;;;;;;;22.52;100.00;98360.00;5074969;28;20221;-76
2023/08/03 06:51:08;;;;;;;3.30;1.42;;;;;;;22.40;100.00;98371.59;5074552;28;20224;-74
2023/08/03 06:53:35;;;;;;;2.90;1.17;;;;;;;22.41;100.00;98369.66;5074469;28;20277;-75
2023/08/03 06:56:01;;;;;;;3.33;1.42;;;;;;;22.38;100.00;98375.78;5074426;28;20330;-75
2023/08/03 06:58:28;;;;;;;4.35;1.23;;;;;;;22.28;100.00;98370.69;5074326;28;20226;-76
2023/08/03 07:00:54;;;;;;;2.13;1.27;;;;;;;22.28;100.00;98368.75;5074540;28;20296;-76
2023/08/03 07:03:21;;;;;;;2.55;1.17;;;;;;;22.15;100.00;98368.97;5074021;28;20222;-75
2023/08/03 07:05:48;;;;;;;3.30;1.40;;;;;;;22.07;100.00;98367.84;5067219;28;20253;-75
2023/08/03 07:08:15;;;;;;;4.35;1.33;;;;;;;22.18;100.00;98379.22;5071210;28;20602;-75
2023/08/03 07:10:41;;;;;;;2.80;1.17;;;;;;;22.20;100.00;98385.16;5073798;28;20222;-76
2023/08/03 07:13:08;;;;;;;3.20;1.20;;;;;;;22.13;100.00;98384.84;5067993;28;20242;-75
2023/08/03 07:15:35;;;;;;;1.70;1.20;;;;;;;22.07;100.00;98389.66;5057093;28;20248;-74
2023/08/03 07:18:06;;;;;;;4.65;1.48;;;;;;;22.11;100.00;98392.56;5064596;28;20255;-75
2023/08/03 07:20:33;;;;;;;3.42;1.50;;;;;;;22.08;100.00;98394.00;5057188;28;20279;-75
2023/08/03 07:23:00;;;;;;;3.28;1.15;;;;;;;22.03;100.00;98398.81;5061955;28;20268;-75
2023/08/03 07:25:27;;;;;;;3.33;1.15;;;;;;;22.06;100.00;98398.19;5053828;28;20571;-75
2023/08/03 07:27:55;;;;;;;3.75;1.38;;;;;;;22.14;100.00;98406.34;5060710;28;20306;-75
2023/08/03 07:30:22;;;;;;;2.33;1.40;;;;;;;22.07;100.00;98408.75;5053773;28;20189;-74
2023/08/03 07:32:48;;;;;;;2.42;1.30;;;;;;;22.08;100.00;98404.91;5058745;28;20196;-75
2023/08/03 07:35:15;;;;;;;2.75;1.27;;;;;;;22.07;100.00;98403.28;5060105;28;20206;-74
2023/08/03 07:37:42;;;;;;;2.95;1.17;;;;;;;22.18;100.00;98409.22;5067241;28;20219;-74
2023/08/03 07:40:09;;;;;;;2.83;1.30;;;;;;;22.30;100.00;98406.63;5073279;28;20196;-75
2023/08/03 07:42:36;;;;;;;4.70;1.50;;;;;;;22.32;100.00;98420.75;5059427;28;20193;-76
2023/08/03 07:45:02;;;;;;;2.40;1.20;;;;;;;22.29;100.00;98427.66;5062361;28;20199;-75
2023/08/03 07:47:30;;;;;;;2.60;1.40;;;;;;;22.33;100.00;98425.06;5073109;28;20271;-75
2023/08/03 07:49:58;;;;;;;1.70;1.20;;;;;;;22.35;100.00;98423.59;5070662;28;20204;-74
2023/08/03 07:52:24;;;;;;;3.50;1.33;;;;;;;22.31;100.00;98427.31;5071163;28;20192;-75
2023/08/03 07:54:54;;;;;;;4.78;1.20;;;;;;;22.40;100.00;98433.53;5073207;28;20229;-75
2023/08/03 07:57:21;;;;;;;2.45;1.20;;;;;;;22.50;100.00;98438.66;5073613;28;20221;-75
2023/08/03 07:59:49;;;;;;;4.72;1.23;;;;;;;22.57;100.00;98427.25;5064998;28;20221;-75
2023/08/03 08:02:15;;;;;;;3.20;1.38;;;;;;;22.60;100.00;98432.03;5073032;28;20652;-75
2023/08/03 08:04:42;;;;;;;2.22;1.20;;;;;;;22.54;100.00;98438.81;5071766;28;20224;-74
2023/08/03 08:07:09;;;;;;;2.80;1.23;;;;;;;22.49;100.00;98444.47;5088947;28;20702;-74
2023/08/03 08:09:36;;;;;;;2.03;1.23;;;;;;;22.38;100.00;98444.00;5098669;28;20204;-74
2023/08/03 08:12:05;;;;;;;1.52;1.20;;;;;;;22.32;100.00;98450.75;5091138;28;20250;-75
2023/08/03 08:14:32;;;;;;;5.63;1.65;;;;;;;22.26;100.00;98457.50;5098858;28;20275;-74
2023/08/03 08:16:59;;;;;;;3.20;1.33;;;;;;;22.27;100.00;98454.44;5093098;28;20685;-75
2023/08/03 08:19:39;;;;;;;3.40;1.30;;;;;;;22.30;100.00;98466.66;5087584;28;20222;-77
2023/08/03 08:22:07;;;;;;;2.65;1.30;;;;;;;22.19;100.00;98471.66;5093148;28;20245;-77
2023/08/03 08:24:43;;;;;;;3.17;1.48;;;;;;;22.35;100.00;98474.66;5090364;28;20200;-74
2023/08/03 08:27:10;;;;;;;2.50;1.38;;;;;;;22.33;100.00;98464.06;5073705;28;20193;-74
2023/08/03 08:29:37;;;;;;;2.65;1.10;;;;;;;22.29;100.00;98474.03;5090902;28;20195;-76
2023/08/03 08:32:05;;;;;;;3.25;1.33;;;;;;;22.10;100.00;98484.50;5090786;28;20205;-75
2023/08/03 08:34:32;;;;;;;2.80;1.30;;;;;;;22.10;100.00;98487.22;5099970;28;20304;-74
2023/08/03 08:36:59;;;;;;;2.45;1.20;;;;;;;22.06;100.00;98490.91;5089266;28;20268;-75
2023/08/03 08:39:26;;;;;;;4.35;1.42;;;;;;;22.15;100.00;98484.34;5097748;28;20241;-75
2023/08/03 08:41:53;;;;;;;3.63;1.30;;;;;;;22.20;100.00;98495.09;5092769;28;20216;-75
2023/08/03 08:44:20;;;;;;;3.00;1.23;;;;;;;22.06;100.00;98494.44;5087181;28;20712;-74
2023/08/03 08:46:47;;;;;;;2.30;1.10;;;;;;;22.11;100.00;98494.28;5091161;28;20226;-74
2023/08/03 08:49:14;;;;;;;2.15;1.10;;;;;;;22.16;100.00;98502.28;5100831;28;20227;-74
2023/08/03 08:51:45;;;;;;;3.53;1.27;;;;;;;22.13;100.00;98493.94;5097957;28;20677;-76
2023/08/03 08:54:15;;;;;;;2.35;1.05;;;;;;;22.11;100.00;98502.47;5075001;28;20200;-74
2023/08/03 08:56:45;;;;;;;4.97;1.25;;;;;;;22.11;100.00;98507.13;5088803;28;20250;-76
2023/08/03 08:59:14;;;;;;;2.63;1.33;;;;;;;22.07;100.00;98514.34;5092103;28;20309;-75
2023/08/03 09:01:50;;;;;;;2.17;1.27;;;;;;;22.08;100.00;98511.28;5089681;28;20277;-74
2023/08/03 09:04:46;;;;;;;3.85;1.35;;;;;;;22.07;100.00;98520.56;5091907;28;20230;-76
2023/08/03 09:07:15;;;;;;;1.50;1.02;;;;;;;22.01;100.00;98526.53;5061761;28;20321;-75
2023/08/03 09:09:42;;;;;;;3.08;1.30;;;;;;;21.92;100.00;98532.75;5070700;28;20276;-75
2023/08/03 09:12:22;;;;;;;1.75;1.10;;;;;;;21.93;100.00;98523.47;5067055;28;20251;-74
2023/08/03 09:14:49;;;;;;;2.33;1.23;;;;;;;22.06;100.00;98529.09;5048929;28;20583;-75
2023/08/03 09:17:20;;;;;;;3.88;1.00;;;;;;;22.16;100.00;98535.00;5068465;28;20677;-75
2023/08/03 09:19:47;;;;;;;1.92;0.98;;;;;;;22.17;100.00;98539.34;5065279;28;20204;-75
2023/08/03 09:22:26;;;;;;;1.98;0.98;;;;;;;22.24;100.00;98539.69;5068749;28;20284;-75
2023/08/03 09:25:07;;;;;;;1.45;0.80;;;;;;;22.11;99.74;98545.31;5064822;28;20207;-75
2023/08/03 09:27:48;;;;;;;2.13;0.80;;;;;;;21.83;97.84;98547.50;5059785;28;20260;-75
2023/08/03 09:30:18;;;;;;;2.30;0.70;;;;;;;21.83;97.95;98547.50;5065003;28;20574;-77
2023/08/03 09:32:45;;;;;;;2.30;0.90;;;;;;;21.76;100.00;98538.97;5067627;28;20189;-77
2023/08/03 09:35:23;;;;;;;2.38;0.82;;;;;;;21.64;98.44;98541.53;5070026;28;20219;-75
2023/08/03 09:37:53;;;;;;;1.00;0.70;;;;;;;21.49;100.00;98527.25;5069017;28;20571;-75
2023/08/03 09:40:20;;;;;;;1.10;0.82;;;;;;;21.49;100.00;98538.13;5053510;28;20567;-75
2023/08/03 09:42:47;;;;;;;1.63;0.77;;;;;;;21.51;100.00;98538.59;5071312;28;20601;-76
2023/08/03 09:45:15;;;;;;;2.40;0.90;;;;;;;21.50;100.00;98537.03;5052125;28;20197;-75
2023/08/03 09:47:45;;;;;;;2.20;0.90;;;;;;;21.47;100.00;98540.38;5068775;28;20221;-75
2023/08/03 09:50:12;;;;;;;1.73;0.75;;;;;;;21.52;100.00;98555.75;5046959;28;20264;-75
2023/08/03 09:52:44;;;;;;;2.75;0.80;;;;;;;21.57;100.00;98560.25;5068986;28;20189;-77
2023/08/03 09:55:20;;;;;;;2.03;0.70;;;;;;;21.63;100.00;98581.63;5069859;28;20192;-75
2023/08/03 09:57:58;;;;;;;2.05;0.85;;;;;;;21.69;100.00;98582.28;5048582;28;20213;-75
2023/08/03 10:00:25;;;;;;;2.13;1.02;;;;;;;21.70;100.00;98576.50;5064231;28;20666;-78
2023/08/03 10:02:56;;;;;;;2.45;0.90;;;;;;;21.83;100.00;98574.78;5047393;28;20190;-76
2023/08/03 10:05:24;;;;;;;1.70;0.90;;;;;;;21.84;100.00;98579.06;5068479;28;20251;-76
2023/08/03 10:08:05;;;;;;;1.98;0.90;;;;;;;21.97;100.00;98589.09;5084768;28;20692;-75
2023/08/03 10:10:36;;;;;;;2.25;0.90;;;;;;;21.98;100.00;98590.69;5086087;28;20222;-74
2023/08/03 10:13:04;;;;;;;2.08;0.80;;;;;;;21.89;100.00;98598.81;5073281;28;20481;-75
2023/08/03 10:15:31;;;;;;;2.05;0.80;;;;;;;21.97;100.00;98599.19;5089672;28;20196;-75
2023/08/03 10:18:04;;;;;;;1.52;0.98;;;;;;;21.99;100.00;98614.09;5088449;28;20609;-75
2023/08/03 10:20:32;;;;;;;1.88;0.90;;;;;;;22.02;100.00;98621.66;5084334;28;20185;-76
2023/08/03 10:23:19;;;;;;;2.55;0.82;;;;;;;22.00;100.00;98623.91;5087071;28;20197;-76
2023/08/03 10:25:57;;;;;;;2.38;0.90;;;;;;;21.97;100.00;98638.19;5086974;28;20205;-76
2023/08/03 10:28:28;;;;;;;2.67;1.10;;;;;;;21.93;100.00;98632.53;5086490;28;20238;-75
2023/08/03 10:31:10;;;;;;;1.70;0.88;;;;;;;21.96;100.00;98620.22;5088267;28;20643;-76
2023/08/03 10:33:47;;;;;;;1.70;0.90;;;;;;;21.99;100.00;98630.47;5088019;28;20288;-75
2023/08/03 10:36:26;;;;;;;1.50;0.80;;;;;;;21.98;100.00;98639.00;5087739;28;20560;-75
2023/08/03 10:39:04;;;;;;;1.75;0.90;;;;;;;22.05;100.00;98639.31;5087897;28;20235;-77
2023/08/03 10:41:36;;;;;;;1.45;0.88;;;;;;;22.04;100.00;98637.69;5083199;28;20206;-76
2023/08/03 10:44:09;;;;;;;1.88;1.10;;;;;;;22.12;100.00;98631.44;5087950;28;20619;-74
2023/08/03 10:46:47;;;;;;;1.55;0.95;;;;;;;22.17;100.00;98621.19;5089871;28;20197;-76
2023/08/03 10:49:17;;;;;;;1.08;0.90;;;;;;;22.27;100.00;98629.06;5087128;28;20201;-76
2023/08/03 10:51:53;;;;;;;1.60;0.80;;;;;;;22.25;100.00;98625.06;5094266;28;20678;-75
2023/08/03 10:54:30;;;;;;;1.75;0.80;;;;;;;22.45;100.00;98612.69;5091974;28;20198;-76
2023/08/03 10:57:08;;;;;;;2.08;0.80;;;;;;;22.48;100.00;98618.31;5093154;28;20202;-76
2023/08/03 10:59:40;;;;;;;0.88;0.85;;;;;;;22.38;100.00;98608.53;5080203;28;20212;-75
2023/08/03 11:02:25;;;;;;;1.98;0.95;;;;;;;22.26;100.00;98599.38;5092240;28;20196;-78
2023/08/03 11:04:53;;;;;;;1.00;0.80;;;;;;;22.26;100.00;98599.38;5082593;28;20204;-76
2023/08/03 11:07:39;;;;;;;0.82;0.63;;;;;;;22.28;100.00;98597.94;5073685;28;20228;-76
2023/08/03 11:10:14;;;;;;;1.92;1.02;;;;;;;22.16;100.00;98596.97;5072537;28;20193;-75
2023/08/03 11:12:42;;;;;;;2.47;1.00;;;;;;;22.00;100.00;98602.09;5055144;28;20206;-75
2023/08/03 11:15:09;;;;;;;1.63;0.80;;;;;;;21.91;100.00;98607.50;5066588;28;20221;-75
2023/08/03 11:17:37;;;;;;;0.98;0.65;;;;;;;21.80;100.00;98611.63;5056206;28;20206;-75
2023/08/03 11:20:07;;;;;;;1.05;0.88;;;;;;;21.70;100.00;98603.75;5073973;28;20231;-77
2023/08/03 11:22:34;;;;;;;1.23;0.80;;;;;;;21.65;100.00;98620.25;5067216;28;20230;-75
2023/08/03 11:25:06;;;;;;;1.92;0.80;;;;;;;21.52;100.00;98640.25;5064411;28;20189;-75
2023/08/03 11:27:33;;;;;;;1.23;0.90;;;;;;;21.34;100.00;98657.63;5071809;28;20193;-75
2023/08/03 11:30:02;;;;;;;0.60;0.60;;;;;;;21.30;100.00;98659.38;5069010;28;20206;-75